Time;durP1;ratioP1;P1;durP2;ratioP2;P2;SDS_P1;SDS_P2;PMS_P1;PMS_P2;Temp;Humidity;BMP_temperature;BMP_pressure;BME280_temperature;BME280_humidity;BME280_pressure;Samples;Min_cycle;Max_cycle;Signal;HPM_P1;HPM_P2
2023/07/11 00:00:49;;;;;;;7.73;6.83;;;;;;;;;;5031537;28;20444;-47
2023/07/11 00:03:16;;;;;;;6.40;5.70;;;21.90;99.20;;;;;;5031666;28;20442;-47
2023/07/11 00:05:43;;;;;;;6.80;6.20;;;;;;;;;;5031699;28;20943;-47
2023/07/11 00:08:10;;;;;;;7.87;6.63;;;21.80;99.40;;;;;;5031244;28;20486;-47
2023/07/11 00:10:37;;;;;;;6.27;5.67;;;21.80;99.60;;;;;;5013686;28;20554;-47
2023/07/11 00:13:04;;;;;;;6.13;5.63;;;21.80;99.70;;;;;;5031607;28;20778;-47
2023/07/11 00:15:31;;;;;;;6.57;5.87;;;;;;;;;;5031594;28;20948;-47
2023/07/11 00:17:58;;;;;;;6.83;5.63;;;21.70;99.80;;;;;;5031551;28;20445;-47
2023/07/11 00:20:25;;;;;;;7.50;6.17;;;21.70;99.90;;;;;;5031000;28;20461;-47
2023/07/11 00:22:52;;;;;;;6.10;5.60;;;;;;;;;;5031313;28;20438;-48
2023/07/11 00:25:19;;;;;;;9.23;6.17;;;;;;;;;;5032517;28;20451;-47
2023/07/11 00:27:46;;;;;;;7.10;5.87;;;;;;;;;;5034695;28;20924;-46
2023/07/11 00:30:14;;;;;;;6.03;5.43;;;21.60;99.90;;;;;;5016674;28;20842;-47
2023/07/11 00:32:40;;;;;;;7.60;6.90;;;21.60;99.90;;;;;;5034807;28;20493;-48
2023/07/11 00:35:08;;;;;;;6.37;5.87;;;;;;;;;;5034743;28;20429;-48
2023/07/11 00:37:35;;;;;;;6.73;5.97;;;21.60;99.90;;;;;;5034646;28;20481;-47
2023/07/11 00:40:02;;;;;;;6.53;6.00;;;;;;;;;;5034382;28;20422;-47
2023/07/11 00:42:30;;;;;;;5.90;5.30;;;;;;;;;;5034547;28;20436;-47
2023/07/11 00:45:01;;;;;;;6.40;5.40;;;21.50;99.90;;;;;;5034754;28;20431;-47
2023/07/11 00:47:30;;;;;;;6.40;5.70;;;;;;;;;;5034784;28;20454;-48
2023/07/11 00:50:04;;;;;;;6.77;6.07;;;;;;;;;;5016263;28;20470;-47
2023/07/11 00:52:32;;;;;;;7.20;6.60;;;;;;;;;;5016701;28;20450;-47
2023/07/11 00:55:00;;;;;;;6.87;6.27;;;;;;;;;;5016711;28;20455;-47
2023/07/11 00:57:29;;;;;;;7.60;6.70;;;21.40;99.90;;;;;;5016599;28;20461;-47
2023/07/11 00:59:56;;;;;;;8.40;7.37;;;;;;;;;;5015920;28;20458;-47
2023/07/11 01:02:26;;;;;;;7.37;6.67;;;21.40;99.90;;;;;;5034451;28;20438;-47
2023/07/11 01:04:55;;;;;;;7.60;6.03;;;21.40;99.90;;;;;;5034308;28;20394;-48
2023/07/11 01:07:24;;;;;;;6.93;6.23;;;;;;;;;;5020133;28;20465;-46
2023/07/11 01:09:51;;;;;;;8.53;6.30;;;21.30;99.90;;;;;;5034058;28;20485;-47
2023/07/11 01:12:18;;;;;;;8.60;6.80;;;;;;;;;;5034102;28;20791;-48
2023/07/11 01:14:49;;;;;;;6.50;5.90;;;21.30;99.90;;;;;;5016454;28;20452;-47
2023/07/11 01:17:23;;;;;;;6.83;6.00;;;;;;;;;;5034035;28;20817;-47
2023/07/11 01:19:50;;;;;;;8.83;6.80;;;21.30;99.90;;;;;;5033550;28;20445;-47
2023/07/11 01:22:17;;;;;;;6.80;6.13;;;21.20;99.90;;;;;;5016097;28;20862;-47
2023/07/11 01:24:45;;;;;;;10.33;5.87;;;21.20;99.90;;;;;;5034366;28;20526;-47
2023/07/11 01:27:12;;;;;;;7.23;5.90;;;21.10;99.90;;;;;;5016243;28;20450;-47
2023/07/11 01:29:41;;;;;;;7.73;6.87;;;;;;;;;;5033330;28;20473;-47
2023/07/11 01:32:08;;;;;;;7.23;6.53;;;21.10;99.90;;;;;;5015993;28;20845;-47
2023/07/11 01:34:35;;;;;;;6.80;6.30;;;;;;;;;;5015899;28;20447;-48
2023/07/11 01:37:02;;;;;;;8.77;6.40;;;;;;;;;;5033211;28;20435;-46
2023/07/11 01:39:30;;;;;;;7.50;6.80;;;21.00;99.90;;;;;;5015556;28;20446;-45
2023/07/11 01:41:57;;;;;;;7.37;6.53;;;;;;;;;;5033703;28;20457;-46
2023/07/11 01:44:25;;;;;;;6.77;6.17;;;;;;;;;;5033631;28;20450;-46
2023/07/11 01:46:52;;;;;;;7.67;6.87;;;20.90;99.90;;;;;;5033849;28;20426;-46
2023/07/11 01:49:18;;;;;;;7.03;6.43;;;20.90;99.90;;;;;;5033417;28;20483;-46
2023/07/11 01:51:47;;;;;;;7.77;7.07;;;20.90;99.90;;;;;;5034168;28;20484;-45
2023/07/11 01:54:14;;;;;;;7.10;6.50;;;20.90;99.90;;;;;;5034390;28;20481;-46
2023/07/11 01:56:43;;;;;;;7.13;6.43;;;;;;;;;;5016019;28;20450;-47
2023/07/11 01:59:10;;;;;;;7.77;7.07;;;;;;;;;;5033681;28;20421;-47
2023/07/11 02:01:36;;;;;;;7.47;6.77;;;20.70;99.90;;;;;;5016379;28;20485;-46
2023/07/11 02:04:03;;;;;;;8.20;6.50;;;20.80;99.90;;;;;;5034050;28;20434;-45
2023/07/11 02:06:30;;;;;;;7.07;6.40;;;;;;;;;;5016155;28;20461;-46
2023/07/11 02:08:56;;;;;;;8.40;7.60;;;20.70;99.90;;;;;;5015978;28;20482;-45
2023/07/11 02:11:23;;;;;;;9.80;7.07;;;20.70;99.90;;;;;;5033553;28;20456;-46
2023/07/11 02:13:51;;;;;;;9.73;6.60;;;20.60;99.90;;;;;;5015740;28;20480;-47
2023/07/11 02:16:18;;;;;;;8.50;7.40;;;;;;;;;;5015890;28;20511;-46
2023/07/11 02:18:47;;;;;;;7.80;7.00;;;20.50;99.90;;;;;;5015927;28;20908;-46
2023/07/11 02:21:14;;;;;;;7.67;6.87;;;;;;;;;;5034292;28;20488;-46
2023/07/11 02:23:40;;;;;;;7.50;6.73;;;20.50;99.90;;;;;;5034152;28;20436;-47
2023/07/11 02:26:09;;;;;;;8.30;7.47;;;;;;;;;;5033591;28;20429;-47
2023/07/11 02:28:36;;;;;;;7.20;6.50;;;;;;;;;;5033375;28;20441;-48
2023/07/11 02:31:04;;;;;;;8.07;7.27;;;20.50;99.90;;;;;;5033687;28;20453;-47
2023/07/11 02:33:30;;;;;;;9.47;7.67;;;;;;;;;;5033174;28;20437;-47
2023/07/11 02:35:57;;;;;;;10.80;6.97;;;20.40;99.90;;;;;;5032877;28;20444;-48
2023/07/11 02:38:24;;;;;;;7.77;7.00;;;20.40;99.90;;;;;;5032781;28;20944;-47
2023/07/11 02:40:51;;;;;;;8.67;7.87;;;;;;;;;;5032576;28;20446;-47
2023/07/11 02:43:19;;;;;;;7.63;6.93;;;;;;;;;;5032718;28;20491;-48
2023/07/11 02:45:46;;;;;;;9.33;8.43;;;20.30;99.90;;;;;;5032427;28;20433;-47
2023/07/11 02:48:13;;;;;;;11.60;7.67;;;20.30;99.90;;;;;;5031430;28;20436;-47
2023/07/11 02:50:40;;;;;;;8.37;7.57;;;20.20;99.90;;;;;;5032010;28;20495;-47
2023/07/11 02:53:07;;;;;;;8.27;7.47;;;;;;;;;;5014528;28;20455;-47
2023/07/11 02:55:38;;;;;;;7.60;6.97;;;20.20;99.90;;;;;;5032445;28;20441;-47
2023/07/11 02:58:05;;;;;;;9.20;8.30;;;;;;;;;;5032183;28;20471;-46
2023/07/11 03:00:32;;;;;;;12.83;8.30;;;20.20;99.90;;;;;;5032108;28;20472;-44
2023/07/11 03:02:59;;;;;;;11.73;8.30;;;;;;;;;;5032389;28;20786;-45
2023/07/11 03:05:27;;;;;;;8.70;7.90;;;20.20;99.90;;;;;;5032418;28;20444;-45
2023/07/11 03:07:54;;;;;;;8.40;7.60;;;;;;;;;;5032257;28;20439;-45
2023/07/11 03:10:20;;;;;;;12.67;8.13;;;20.20;99.90;;;;;;5031997;28;20491;-44
2023/07/11 03:12:47;;;;;;;8.60;7.80;;;;;;;;;;5032615;28;20433;-44
2023/07/11 03:15:14;;;;;;;11.73;8.33;;;20.10;99.90;;;;;;5032608;28;20926;-44
2023/07/11 03:17:40;;;;;;;9.40;8.50;;;20.10;99.90;;;;;;5032057;28;20432;-44
2023/07/11 03:20:08;;;;;;;11.63;8.27;;;;;;;;;;5014134;28;20452;-44
2023/07/11 03:22:36;;;;;;;9.97;8.87;;;20.20;99.90;;;;;;5032497;28;20447;-44
2023/07/11 03:25:02;;;;;;;10.20;9.07;;;20.00;99.90;;;;;;5032425;28;20447;-45
2023/07/11 03:27:29;;;;;;;9.60;8.40;;;20.10;99.90;;;;;;5032136;28;20435;-43
2023/07/11 03:29:56;;;;;;;9.57;8.57;;;;;;;;;;5013781;28;20467;-47
2023/07/11 03:32:23;;;;;;;9.67;8.17;;;;;;;;;;5031942;28;20454;-46
2023/07/11 03:34:50;;;;;;;8.77;7.30;;;;;;;;;;5032059;28;20454;-44
2023/07/11 03:37:16;;;;;;;8.87;7.60;;;20.20;99.90;;;;;;5034259;28;20429;-45
2023/07/11 03:39:45;;;;;;;8.57;7.80;;;;;;;;;;5032021;28;20454;-45
2023/07/11 03:42:12;;;;;;;8.87;7.97;;;;;;;;;;5031731;28;20448;-44
2023/07/11 03:44:39;;;;;;;10.83;8.40;;;;;;;;;;5031949;28;20433;-45
2023/07/11 03:47:06;;;;;;;9.40;8.50;;;;;;;;;;5031814;28;20436;-45
2023/07/11 03:49:33;;;;;;;8.70;7.90;;;20.30;99.90;;;;;;5031343;28;20479;-44
2023/07/11 03:52:00;;;;;;;9.83;8.17;;;;;;;;;;5031693;28;20451;-44
2023/07/11 03:54:27;;;;;;;8.93;7.40;;;;;;;;;;5013820;28;20950;-43
2023/07/11 03:56:56;;;;;;;9.90;8.33;;;;;;;;;;5031717;28;20447;-44
2023/07/11 03:59:23;;;;;;;9.17;8.27;;;;;;;;;;5031398;28;20436;-48
2023/07/11 04:01:50;;;;;;;9.27;8.37;;;;;;;;;;5035258;28;20555;-44
2023/07/11 04:04:17;;;;;;;10.20;8.17;;;;;;;;;;5035365;28;20463;-47
2023/07/11 04:06:43;;;;;;;9.17;7.90;;;20.70;99.90;;;;;;5035361;28;20785;-44
2023/07/11 04:09:10;;;;;;;10.40;8.73;;;20.80;99.90;;;;;;5034762;28;20440;-44
2023/07/11 04:11:37;;;;;;;10.70;8.23;;;;;;;;;;5035353;28;20457;-44
2023/07/11 04:14:05;;;;;;;12.47;8.17;;;;;;;;;;5035198;28;20438;-46
2023/07/11 04:16:32;;;;;;;8.17;6.93;;;21.20;99.90;;;;;;5017257;28;20443;-45
2023/07/11 04:18:59;;;;;;;8.53;7.63;;;;;;;;;;5034774;28;20446;-44
2023/07/11 04:21:25;;;;;;;8.50;6.77;;;21.40;99.90;;;;;;5034942;28;20552;-45
2023/07/11 04:23:52;;;;;;;8.17;7.00;;;21.60;99.90;;;;;;5034878;28;20431;-45
2023/07/11 04:26:19;;;;;;;12.03;7.37;;;;;;;;;;5034798;28;20437;-43
2023/07/11 04:28:46;;;;;;;11.17;6.53;;;;;;;;;;5034457;28;20445;-45
2023/07/11 04:31:14;;;;;;;7.10;5.30;;;22.10;99.90;;;;;;5034752;28;20486;-44
2023/07/11 04:33:40;;;;;;;6.27;5.67;;;22.30;99.90;;;;;;5034982;28;20435;-45
2023/07/11 04:36:11;;;;;;;11.40;5.83;;;;;;;;;;5034630;28;20652;-45
2023/07/11 04:38:39;;;;;;;8.53;5.67;;;22.60;99.90;;;;;;5034343;28;20948;-45
2023/07/11 04:41:06;;;;;;;9.40;6.10;;;22.70;99.90;;;;;;5034728;28;20460;-46
2023/07/11 04:43:34;;;;;;;6.70;4.67;;;;;;;;;;5034351;28;20435;-45
2023/07/11 04:46:01;;;;;;;5.83;5.23;;;;;;;;;;5034508;28;20461;-45
2023/07/11 04:48:30;;;;;;;7.17;4.63;;;;;;;;;;5034304;28;20436;-45
2023/07/11 04:50:58;;;;;;;5.90;4.30;;;;;;;;;;5036880;28;20479;-46
2023/07/11 04:53:25;;;;;;;7.37;4.90;;;;;;;;;;5036724;28;20858;-45
2023/07/11 04:55:56;;;;;;;7.70;4.30;;;;;;;;;;5034270;28;20437;-46
2023/07/11 04:58:23;;;;;;;6.13;4.90;;;23.50;99.90;;;;;;5034049;28;20439;-46
2023/07/11 05:00:50;;;;;;;7.13;5.17;;;;;;;;;;5034297;28;20477;-44
2023/07/11 05:03:17;;;;;;;7.20;4.80;;;23.70;99.90;;;;;;5034729;28;20449;-46
2023/07/11 05:05:44;;;;;;;6.80;4.40;;;23.80;99.90;;;;;;5034136;28;20448;-44
2023/07/11 05:08:11;;;;;;;7.00;4.60;;;23.90;99.70;;;;;;5015948;28;20458;-45
2023/07/11 05:10:38;;;;;;;6.43;3.83;;;;;;;;;;5033837;28;20492;-47
2023/07/11 05:13:04;;;;;;;5.47;4.00;;;24.10;99.30;;;;;;5032848;28;20441;-46
2023/07/11 05:15:31;;;;;;;8.17;3.90;;;;;;;;;;5034214;28;20442;-48
2023/07/11 05:17:58;;;;;;;6.07;4.10;;;;;;;;;;5033853;28;20456;-48
2023/07/11 05:20:25;;;;;;;5.40;3.27;;;24.30;97.60;;;;;;5033477;28;20460;-48
2023/07/11 05:22:53;;;;;;;4.23;3.60;;;24.30;97.40;;;;;;5033605;28;20435;-47
2023/07/11 05:25:20;;;;;;;5.73;3.10;;;;;;;;;;5033738;28;20936;-47
2023/07/11 05:27:47;;;;;;;7.43;3.90;;;;;;;;;;5033749;28;20804;-48
2023/07/11 05:30:14;;;;;;;7.40;3.40;;;;;;;;;;5033216;28;20486;-47
2023/07/11 05:32:41;;;;;;;7.50;4.20;;;24.70;96.30;;;;;;5033522;28;20431;-50
2023/07/11 05:35:08;;;;;;;9.07;3.50;;;;;;;;;;5033405;28;20841;-48
2023/07/11 05:37:35;;;;;;;4.10;3.50;;;24.90;95.80;;;;;;5015386;28;20469;-48
2023/07/11 05:40:03;;;;;;;4.20;3.20;;;24.90;95.40;;;;;;5033288;28;20438;-48
2023/07/11 05:42:30;;;;;;;5.63;3.40;;;;;;;;;;5033253;28;20950;-48
2023/07/11 05:44:57;;;;;;;4.90;3.03;;;25.00;95.10;;;;;;5033465;28;20800;-47
2023/07/11 05:47:24;;;;;;;6.20;3.90;;;;;;;;;;5033206;28;20493;-48
2023/07/11 05:49:51;;;;;;;7.13;3.30;;;;;;;;;;5032570;28;21007;-48
2023/07/11 05:52:18;;;;;;;8.50;3.70;;;;;;;;;;5033170;28;20438;-47
2023/07/11 05:54:45;;;;;;;7.03;3.50;;;;;;;;;;5033404;28;20436;-48
2023/07/11 05:57:13;;;;;;;5.40;4.13;;;;;;;;;;5015443;28;20451;-47
2023/07/11 05:59:40;;;;;;;7.57;3.70;;;25.30;95.20;;;;;;5032784;28;20439;-48
2023/07/11 06:02:07;;;;;;;6.23;3.40;;;;;;;;;;5033001;28;20534;-47
2023/07/11 06:04:34;;;;;;;7.17;3.90;;;25.40;95.40;;;;;;5033302;28;20898;-48
2023/07/11 06:07:01;;;;;;;4.83;3.80;;;;;;;;;;5033979;28;20439;-49
2023/07/11 06:09:28;;;;;;;6.50;3.80;;;;;;;;;;5032783;28;20465;-49
2023/07/11 06:11:54;;;;;;;4.60;3.67;;;25.50;95.40;;;;;;5014915;28;20480;-48
2023/07/11 06:14:23;;;;;;;5.10;3.67;;;;;;;;;;5032953;28;20436;-47
2023/07/11 06:16:50;;;;;;;4.97;3.40;;;;;;;;;;5032703;28;20450;-48
2023/07/11 06:19:17;;;;;;;6.20;4.23;;;25.70;94.80;;;;;;5031898;28;20457;-48
2023/07/11 06:21:44;;;;;;;4.40;3.63;;;;;;;;;;5033087;28;20953;-47
2023/07/11 06:24:11;;;;;;;6.50;3.77;;;;;;;;;;5032421;28;20436;-48
2023/07/11 06:26:38;;;;;;;5.90;4.00;;;;;;;;;;5032247;28;20440;-48
2023/07/11 06:29:05;;;;;;;6.10;3.70;;;;;;;;;;5032189;28;20441;-46
2023/07/11 06:31:33;;;;;;;8.17;3.63;;;26.00;93.90;;;;;;5032018;28;20488;-48
2023/07/11 06:34:00;;;;;;;5.00;3.90;;;;;;;;;;5014343;28;20509;-46
2023/07/11 06:36:27;;;;;;;9.80;4.20;;;26.00;93.30;;;;;;5032135;28;20440;-46
2023/07/11 06:38:54;;;;;;;7.07;4.13;;;;;;;;;;5032036;28;20435;-44
2023/07/11 06:41:21;;;;;;;7.07;3.53;;;;;;;;;;5031777;28;20983;-45
2023/07/11 06:43:49;;;;;;;4.80;3.60;;;;;;;;;;5032426;28;20434;-45
2023/07/11 06:46:16;;;;;;;4.97;3.63;;;;;;;;;;5032185;28;20924;-45
2023/07/11 06:48:44;;;;;;;8.20;5.67;;;;;;;;;;5031754;28;20427;-44
2023/07/11 06:51:11;;;;;;;22.77;20.50;;;;;;;;;;5032335;28;20491;-45
2023/07/11 06:53:39;;;;;;;6.07;3.77;;;;;;;;;;5031858;28;20763;-45
2023/07/11 06:56:06;;;;;;;7.23;3.37;;;26.40;91.80;;;;;;5031792;28;20446;-45
2023/07/11 06:58:33;;;;;;;5.33;2.93;;;;;;;;;;5031657;28;20524;-48
2023/07/11 07:01:01;;;;;;;8.20;4.13;;;;;;;;;;5031891;28;21004;-45
2023/07/11 07:03:28;;;;;;;4.93;3.60;;;;;;;;;;5032032;28;20454;-45
2023/07/11 07:05:58;;;;;;;5.60;3.53;;;;;;;;;;5032621;28;20908;-46
2023/07/11 07:08:25;;;;;;;4.37;2.73;;;;;;;;;;5031754;28;20970;-46
2023/07/11 07:10:53;;;;;;;5.73;3.50;;;;;;;;;;5032124;28;20478;-46
2023/07/11 07:13:21;;;;;;;5.70;3.13;;;;;;;;;;5031698;28;20782;-45
2023/07/11 07:15:48;;;;;;;4.20;3.10;;;;;;;;;;5013789;28;20443;-45
2023/07/11 07:18:16;;;;;;;6.73;2.60;;;;;;;;;;5031586;28;20436;-45
2023/07/11 07:20:44;;;;;;;4.90;3.17;;;;;;;;;;5033261;28;20483;-45
2023/07/11 07:23:12;;;;;;;3.90;2.53;;;;;;;;;;5014057;28;20439;-45
2023/07/11 07:25:39;;;;;;;3.83;2.50;;;;;;;;;;5032037;28;20451;-44
2023/07/11 07:28:07;;;;;;;9.27;3.30;;;;;;;;;;5031511;28;20440;-46
2023/07/11 07:30:34;;;;;;;7.10;4.70;;;;;;;;;;5031519;28;20561;-45
2023/07/11 07:33:01;;;;;;;8.60;3.27;;;;;;;;;;5032106;28;20830;-46
2023/07/11 07:35:28;;;;;;;4.67;3.00;;;;;;;;;;5034308;28;20446;-46
2023/07/11 07:37:55;;;;;;;10.43;3.13;;;;;;;;;;5036486;28;20428;-45
2023/07/11 07:40:24;;;;;;;4.03;2.77;;;;;;;;;;5035832;28;20469;-47
2023/07/11 07:42:51;;;;;;;4.47;2.10;;;;;;;;;;5035518;28;20923;-45
2023/07/11 07:45:18;;;;;;;3.33;2.27;;;;;;;;;;5036134;28;20462;-47
2023/07/11 07:47:45;;;;;;;3.40;2.20;;;;;;;;;;5036003;28;20436;-46
2023/07/11 07:50:12;;;;;;;4.23;2.63;;;;;;;;;;5017031;28;20471;-47
2023/07/11 07:52:39;;;;;;;5.43;2.50;;;;;;;;;;5035792;28;20708;-48
2023/07/11 07:55:06;;;;;;;3.63;2.47;;;26.50;81.30;;;;;;5035667;28;20452;-47
2023/07/11 07:57:35;;;;;;;6.50;2.70;;;;;;;;;;5035710;28;20435;-48
2023/07/11 08:00:04;;;;;;;4.50;2.50;;;;;;;;;;5035355;28;20431;-48
2023/07/11 08:02:32;;;;;;;4.97;2.87;;;;;;;;;;5048306;22;20491;-50
2023/07/11 08:04:59;;;;;;;2.83;2.33;;;;;;;;;;5034845;28;20986;-49
2023/07/11 08:07:27;;;;;;;5.17;2.57;;;;;;;;;;5034863;28;20443;-50
2023/07/11 08:09:54;;;;;;;6.23;2.80;;;;;;;;;;5034788;28;20518;-50
2023/07/11 08:12:21;;;;;;;3.90;2.57;;;;;;;;;;5035012;28;20549;-49
2023/07/11 08:14:49;;;;;;;4.70;3.07;;;26.70;79.20;;;;;;5035296;28;20435;-49
2023/07/11 08:17:16;;;;;;;4.97;2.70;;;;;;;;;;5035014;28;20435;-50
2023/07/11 08:19:43;;;;;;;4.07;2.60;;;;;;;;;;5034535;28;20440;-51
2023/07/11 08:22:10;;;;;;;4.60;3.20;;;;;;;;;;5034119;28;20458;-51
2023/07/11 08:24:37;;;;;;;5.97;2.23;;;26.90;75.70;;;;;;5034438;28;20427;-49
2023/07/11 08:27:04;;;;;;;7.27;2.40;;;;;;;;;;5034154;28;20498;-50
2023/07/11 08:29:31;;;;;;;4.00;2.13;;;26.90;72.50;;;;;;5034146;28;20957;-49
2023/07/11 08:31:59;;;;;;;4.07;2.50;;;;;;;;;;5034006;28;20899;-49
2023/07/11 08:34:26;;;;;;;2.30;1.63;;;26.90;68.70;;;;;;5034571;28;20531;-49
2023/07/11 08:36:53;;;;;;;4.10;1.90;;;;;;;;;;5034408;28;20916;-50
2023/07/11 08:39:19;;;;;;;4.80;2.00;;;27.00;67.30;;;;;;5033875;28;20565;-49
2023/07/11 08:41:47;;;;;;;5.90;1.93;;;;;;;;;;5016111;28;20471;-52
2023/07/11 08:44:16;;;;;;;3.53;2.33;;;;;;;;;;5034089;28;20478;-49
2023/07/11 08:46:45;;;;;;;4.57;2.53;;;;;;;;;;5033897;28;20440;-48
2023/07/11 08:49:16;;;;;;;3.97;2.80;;;;;;;;;;5033478;28;20435;-49
2023/07/11 08:51:45;;;;;;;5.30;2.30;;;27.10;68.20;;;;;;5015972;28;20486;-49
2023/07/11 08:54:15;;;;;;;6.03;2.77;;;;;;;;;;5033767;28;20458;-49
2023/07/11 08:56:44;;;;;;;4.63;2.20;;;;;;;;;;5033832;28;20447;-49
2023/07/11 08:59:14;;;;;;;2.90;1.63;;;;;;;;;;5033599;28;20955;-50
2023/07/11 09:01:43;;;;;;;6.60;1.63;;;;;;;;;;5033507;28;20866;-50
2023/07/11 09:04:12;;;;;;;4.80;2.37;;;;;;;;;;5033879;28;20932;-49
2023/07/11 09:06:42;;;;;;;4.07;2.33;;;;;;;;;;5033853;28;20452;-49
2023/07/11 09:09:11;;;;;;;5.43;1.90;;;27.40;63.30;;;;;;5033111;28;20427;-50
2023/07/11 09:11:46;;;;;;;6.17;2.70;;;27.50;63.10;;;;;;5033597;28;20502;-50
2023/07/11 09:14:20;;;;;;;5.80;2.20;;;;;;;;;;5033176;28;20431;-51
2023/07/11 09:16:49;;;;;;;6.33;2.30;;;;;;;;;;5033488;28;20955;-50
2023/07/11 09:19:30;;;;;;;6.13;2.00;;;27.70;61.10;;;;;;5033050;28;20455;-50
2023/07/11 09:22:14;;;;;;;3.73;1.60;;;;;;;;;;5033457;28;20439;-49
2023/07/11 09:24:45;;;;;;;7.50;2.97;;;;;;;;;;5033280;28;20780;-50
2023/07/11 09:27:17;;;;;;;5.70;2.20;;;;;;;;;;5033241;28;20451;-48
2023/07/11 09:29:46;;;;;;;3.00;1.83;;;;;;;;;;5032848;28;20437;-50
2023/07/11 09:32:14;;;;;;;4.13;1.93;;;27.70;60.90;;;;;;5033098;28;20518;-50
2023/07/11 09:34:44;;;;;;;3.43;2.00;;;;;;;;;;5033304;28;20439;-49
2023/07/11 09:37:14;;;;;;;5.80;2.27;;;;;;;;;;5032838;28;20955;-50
2023/07/11 09:39:47;;;;;;;3.80;2.40;;;;;;;;;;5014753;28;20553;-50
2023/07/11 09:42:19;;;;;;;5.20;2.20;;;;;;;;;;5032970;28;20466;-50
2023/07/11 09:44:58;;;;;;;2.77;2.07;;;;;;;;;;5033018;28;20599;-49
2023/07/11 09:47:27;;;;;;;3.30;1.80;;;;;;;;;;5014872;28;20450;-49
2023/07/11 09:49:54;;;;;;;6.43;2.00;;;;;;;;;;5032751;28;20797;-50
2023/07/11 09:52:26;;;;;;;4.40;2.40;;;;;;;;;;5014550;28;20509;-49
2023/07/11 09:54:55;;;;;;;8.93;2.07;;;;;;;;;;5032891;28;21004;-50
2023/07/11 09:57:22;;;;;;;7.30;2.87;;;;;;;;;;5032079;28;20439;-50
2023/07/11 09:59:54;;;;;;;5.93;1.80;;;;;;;;;;5031863;28;20435;-49
2023/07/11 10:02:22;;;;;;;5.80;2.30;;;;;;;;;;5032334;28;20469;-48
2023/07/11 10:04:51;;;;;;;3.13;1.50;;;;;;;;;;5032238;28;20442;-48
2023/07/11 10:07:21;;;;;;;5.90;2.23;;;;;;;;;;5032618;28;20478;-51
2023/07/11 10:09:50;;;;;;;5.40;1.90;;;;;;;;;;5031920;28;20443;-50
2023/07/11 10:12:20;;;;;;;4.33;1.57;;;;;;;;;;5032273;28;20495;-49
2023/07/11 10:14:48;;;;;;;5.10;2.30;;;;;;;;;;5031960;28;20435;-48
2023/07/11 10:17:18;;;;;;;7.90;1.97;;;;;;;;;;5032256;28;20440;-50
2023/07/11 10:19:47;;;;;;;3.13;1.73;;;;;;;;;;5031677;28;20439;-48
2023/07/11 10:22:16;;;;;;;3.17;2.20;;;;;;;;;;5032114;28;20539;-49
2023/07/11 10:24:43;;;;;;;5.13;2.33;;;;;;;;;;5032120;28;20507;-50
2023/07/11 10:27:14;;;;;;;8.53;4.37;;;27.80;59.00;;;;;;5032014;28;20939;-50
2023/07/11 10:29:44;;;;;;;11.60;5.03;;;;;;;;;;5031252;28;20449;-51
2023/07/11 10:32:17;;;;;;;3.20;1.90;;;27.80;59.10;;;;;;5031901;28;20483;-50
2023/07/11 10:34:46;;;;;;;4.77;2.00;;;;;;;;;;5031966;28;20431;-49
2023/07/11 10:37:19;;;;;;;5.73;2.20;;;27.80;58.70;;;;;;5014036;28;20455;-50
2023/07/11 10:39:48;;;;;;;6.93;2.30;;;;;;;;;;5031203;28;20444;-50
2023/07/11 10:42:24;;;;;;;3.80;1.87;;;;;;;;;;5031616;28;20444;-49
2023/07/11 10:44:55;;;;;;;6.07;3.10;;;;;;;;;;5031647;28;20438;-50
2023/07/11 10:47:26;;;;;;;2.53;1.43;;;;;;;;;;5031703;28;20522;-49
2023/07/11 10:49:54;;;;;;;4.77;2.37;;;;;;;;;;5031333;28;20931;-50
2023/07/11 10:52:23;;;;;;;9.80;2.50;;;;;;;;;;5031875;28;20471;-50
2023/07/11 10:54:52;;;;;;;5.47;2.87;;;;;;;;;;5032325;28;20542;-49
2023/07/11 10:57:26;;;;;;;6.73;2.10;;;;;;;;;;5032211;28;20549;-50
2023/07/11 10:59:54;;;;;;;7.23;2.67;;;;;;;;;;5031590;28;20435;-50
2023/07/11 11:02:28;;;;;;;5.07;2.33;;;27.90;58.70;;;;;;5014569;28;20570;-50
2023/07/11 11:05:02;;;;;;;4.80;2.40;;;;;;;;;;5032284;28;20436;-49
2023/07/11 11:07:31;;;;;;;2.73;2.23;;;;;;;;;;5032453;28;20453;-49
2023/07/11 11:10:01;;;;;;;4.90;4.10;;;;;;;;;;5030439;28;20458;-49
2023/07/11 11:12:34;;;;;;;4.10;2.10;;;;;;;;;;5031635;28;20475;-51
2023/07/11 11:15:06;;;;;;;9.00;6.03;;;;;;;;;;5031792;28;20435;-50
2023/07/11 11:17:38;;;;;;;4.87;2.53;;;;;;;;;;5032029;28;20812;-51
2023/07/11 11:20:13;;;;;;;5.70;2.40;;;;;;;;;;5013463;28;20456;-50
2023/07/11 11:22:43;;;;;;;4.40;2.33;;;;;;;;;;5031377;28;20454;-50
2023/07/11 11:25:17;;;;;;;3.17;2.23;;;;;;;;;;5031609;28;20446;-49
2023/07/11 11:27:50;;;;;;;4.20;3.17;;;;;;;;;;5032034;28;20989;-50
2023/07/11 11:30:30;;;;;;;5.63;2.60;;;28.10;55.60;;;;;;5031423;28;20850;-50
2023/07/11 11:33:01;;;;;;;97.37;88.37;;;;;;;;;;5030871;28;20485;-49
2023/07/11 11:35:36;;;;;;;5.67;4.70;;;28.10;56.20;;;;;;5031736;28;20434;-49
2023/07/11 11:38:10;;;;;;;2.90;2.27;;;;;;;;;;5030732;28;20439;-50
2023/07/11 11:40:40;;;;;;;4.70;2.43;;;28.10;57.40;;;;;;5031288;28;20441;-50
2023/07/11 11:43:11;;;;;;;6.23;3.00;;;;;;;;;;5031091;28;20443;-50
2023/07/11 11:45:39;;;;;;;3.17;2.40;;;;;;;;;;5031140;28;20469;-48
2023/07/11 11:48:07;;;;;;;4.40;2.60;;;;;;;;;;5030710;28;20550;-49
2023/07/11 11:50:36;;;;;;;4.17;2.60;;;;;;;;;;5030802;28;20435;-49
2023/07/11 11:53:19;;;;;;;3.80;2.57;;;28.10;57.30;;;;;;5030870;28;20481;-49
2023/07/11 11:55:48;;;;;;;4.30;2.57;;;;;;;;;;5030962;28;20527;-49
2023/07/11 11:58:17;;;;;;;12.10;3.20;;;28.20;57.60;;;;;;5030482;28;20436;-49
2023/07/11 12:00:49;;;;;;;4.53;2.87;;;;;;;;;;5030654;28;20478;-50
2023/07/11 12:03:21;;;;;;;5.70;2.67;;;;;;;;;;5031115;28;20941;-50
2023/07/11 12:05:49;;;;;;;6.60;3.00;;;;;;;;;;5030835;28;20443;-50
2023/07/11 12:08:26;;;;;;;8.10;3.67;;;28.30;57.70;;;;;;5030588;28;20443;-49
2023/07/11 12:11:17;;;;;;;4.23;3.70;;;;;;;;;;5030816;28;20465;-50
2023/07/11 12:13:45;;;;;;;3.63;2.60;;;28.40;57.50;;;;;;5015903;28;20510;-50
2023/07/11 12:19:26;;;;;;;5.80;3.17;;;;;;;;;;5088838;28;20571;-50
2023/07/11 12:21:58;;;;;;;4.73;2.30;;;28.50;56.30;;;;;;5088811;28;20514;-50
2023/07/11 12:24:27;;;;;;;4.10;2.93;;;;;;;;;;5088791;28;20768;-50
2023/07/11 12:26:54;;;;;;;4.70;3.60;;;;;;;;;;5088964;28;20444;-50
2023/07/11 12:29:38;;;;;;;6.43;3.70;;;;;;;;;;5088413;28;20921;-50
2023/07/11 12:32:20;;;;;;;5.30;3.50;;;;;;;;;;5077011;22;20536;-45
2023/07/11 12:34:55;;;;;;;4.13;2.90;;;;;;;;;;5048397;28;20443;-45
2023/07/11 12:37:24;;;;;;;5.30;2.90;;;;;;;;;;5049105;28;20434;-45
2023/07/11 12:39:56;;;;;;;4.73;3.43;;;;;;;;;;5048212;28;20435;-46
2023/07/11 12:42:39;;;;;;;2.83;2.63;;;;;;;;;;5027543;28;20531;-45
2023/07/11 12:45:14;;;;;;;11.75;6.20;;;;;;;;;;5028159;28;20453;-44
2023/07/11 12:47:41;;;;;;;3.90;2.63;;;;;;;;;;5028617;28;20586;-45
2023/07/11 12:50:16;;;;;;;5.70;2.20;;;;;;;;;;5028440;28;20590;-45
2023/07/11 12:52:43;;;;;;;6.43;3.10;;;28.70;55.90;;;;;;5027170;28;20857;-44
2023/07/11 12:55:12;;;;;;;4.10;2.83;;;;;;;;;;5028656;28;20432;-45
2023/07/11 12:57:44;;;;;;;3.37;3.00;;;28.80;55.90;;;;;;5028317;28;20793;-45
2023/07/11 13:00:18;;;;;;;2.83;2.60;;;;;;;;;;5030749;28;20796;-46
2023/07/11 13:02:46;;;;;;;4.40;2.63;;;;;;;;;;5028798;28;20483;-47
2023/07/11 13:05:14;;;;;;;5.67;2.80;;;28.70;56.30;;;;;;5028676;28;20428;-46
2023/07/11 13:07:43;;;;;;;8.10;4.33;;;;;;;;;;5027282;28;20464;-47
2023/07/11 13:10:18;;;;;;;48.17;43.97;;;;;;;;;;5028289;28;20932;-45
2023/07/11 13:12:45;;;;;;;5.47;4.93;;;;;;;;;;5026764;28;20982;-46
2023/07/11 13:15:14;;;;;;;5.90;3.80;;;;;;;;;;5028549;28;20468;-45
2023/07/11 13:17:42;;;;;;;4.57;2.93;;;;;;;;;;5028464;28;20764;-45
2023/07/11 13:20:15;;;;;;;10.63;2.93;;;;;;;;;;5027718;28;20525;-45
2023/07/11 13:22:44;;;;;;;6.50;3.50;;;;;;;;;;5028430;28;20530;-46
2023/07/11 13:25:13;;;;;;;5.37;3.60;;;;;;;;;;5027697;28;20928;-46
2023/07/11 13:27:42;;;;;;;4.60;3.00;;;;;;;;;;5028162;28;21038;-44
2023/07/11 13:30:18;;;;;;;7.93;3.77;;;;;;;;;;5015652;28;20440;-45
2023/07/11 13:32:45;;;;;;;3.20;2.70;;;;;;;;;;5014525;28;20451;-45
2023/07/11 13:35:15;;;;;;;3.43;3.13;;;;;;;;;;5014404;28;20539;-48
2023/07/11 13:37:45;;;;;;;8.30;3.70;;;;;;;;;;5014752;28;20436;-48
2023/07/11 13:40:39;;;;;;;5.90;3.63;;;;;;;;;;5012763;28;20448;-48
2023/07/11 13:43:15;;;;;;;4.23;3.63;;;;;;;;;;4979025;28;20953;-49
2023/07/11 13:45:42;;;;;;;4.20;3.30;;;;;;;;;;5014535;28;20459;-48
2023/07/11 13:48:14;;;;;;;5.00;3.10;;;29.30;54.00;;;;;;5014269;28;20496;-49
2023/07/11 13:50:41;;;;;;;3.83;2.87;;;;;;;;;;5014658;28;20475;-49
2023/07/11 13:53:14;;;;;;;5.37;3.20;;;29.30;54.10;;;;;;5014185;28;20444;-48
2023/07/11 13:55:44;;;;;;;3.73;3.00;;;;;;;;;;5013925;28;20812;-49
2023/07/11 13:58:12;;;;;;;6.67;3.43;;;;;;;;;;5014198;28;20850;-48
2023/07/11 14:00:39;;;;;;;5.83;3.80;;;;;;;;;;5014289;28;20460;-48
2023/07/11 14:03:07;;;;;;;3.50;2.93;;;;;;;;;;5015814;28;20436;-48
2023/07/11 14:05:34;;;;;;;4.70;3.13;;;;;;;;;;5014130;28;20440;-48
2023/07/11 14:08:01;;;;;;;5.20;3.80;;;;;;;;;;5013678;28;20555;-48
2023/07/11 14:10:31;;;;;;;5.00;4.53;;;;;;;;;;5013725;28;20469;-48
2023/07/11 14:12:58;;;;;;;5.33;4.13;;;;;;;;;;5013913;28;20440;-48
2023/07/11 14:15:27;;;;;;;6.80;3.93;;;29.90;52.50;;;;;;5013927;28;20440;-49